Time;durP1;ratioP1;P1;durP2;ratioP2;P2;SDS_P1;SDS_P2;PMS_P1;PMS_P2;Temp;Humidity;BMP_temperature;BMP_pressure;BME280_temperature;BME280_humidity;BME280_pressure;Samples;Min_cycle;Max_cycle;Signal;HPM_P1;HPM_P2
2022/12/26 00:00:44;;;;;;;;;;;;;;;12.51;71.77;100615.91;1053614;28;1118;-65
2022/12/26 00:01:34;;;;;;;;;;;;;;;12.49;71.73;100612.50;1055585;28;624;-65
2022/12/26 00:02:25;;;;;;;;;;;;;;;12.49;71.31;100617.84;1053637;28;605;-65
2022/12/26 00:03:15;;;;;;;;;;;;;;;12.48;71.73;100616.16;1052349;28;642;-65
2022/12/26 00:04:05;;;;;;;;;;;;;;;12.51;71.64;100621.25;1052604;28;634;-66
2022/12/26 00:04:56;;;;;;;;;;;;;;;12.50;70.96;100622.22;1055218;28;1241;-65
2022/12/26 00:05:46;;;;;;;;;;;;;;;12.49;71.68;100618.69;1056109;28;669;-65
2022/12/26 00:06:37;;;;;;;;;;;;;;;12.50;71.63;100628.44;1053644;28;752;-65
2022/12/26 00:07:27;;;;;;;;;;;;;;;12.50;71.44;100619.56;1051975;28;634;-65
2022/12/26 00:08:18;;;;;;;;;;;;;;;12.49;70.91;100618.69;1055508;28;702;-65
2022/12/26 00:09:08;;;;;;;;;;;;;;;12.48;71.66;100621.50;1055846;28;1209;-65
2022/12/26 00:09:58;;;;;;;;;;;;;;;12.48;71.80;100616.16;1053117;28;1083;-65
2022/12/26 00:10:49;;;;;;;;;;;;;;;12.47;71.39;100611.75;1051624;28;653;-65
2022/12/26 00:11:39;;;;;;;;;;;;;;;12.48;71.07;100618.81;1056209;28;736;-65
2022/12/26 00:12:30;;;;;;;;;;;;;;;12.48;71.07;100614.31;1056254;28;1150;-65
2022/12/26 00:13:20;;;;;;;;;;;;;;;12.50;71.16;100619.56;1055273;28;1179;-65
2022/12/26 00:14:10;;;;;;;;;;;;;;;12.49;70.95;100623.19;1055948;28;1154;-65
2022/12/26 00:15:01;;;;;;;;;;;;;;;12.48;71.24;100614.31;1053668;28;649;-65
2022/12/26 00:15:51;;;;;;;;;;;;;;;12.48;70.93;100619.66;1060762;27;1252;-65
2022/12/26 00:16:42;;;;;;;;;;;;;;;12.48;71.81;100621.50;1056260;28;704;-65
2022/12/26 00:17:32;;;;;;;;;;;;;;;12.49;71.46;100617.84;1053682;28;1170;-65
2022/12/26 00:18:23;;;;;;;;;;;;;;;12.50;71.26;100614.22;1053592;28;625;-65
2022/12/26 00:19:13;;;;;;;;;;;;;;;12.49;71.25;100618.69;1052368;28;1214;-65
2022/12/26 00:20:04;;;;;;;;;;;;;;;12.49;71.19;100618.69;1053088;28;660;-65
2022/12/26 00:20:54;;;;;;;;;;;;;;;12.50;71.58;100617.75;1052633;28;685;-65
2022/12/26 00:21:44;;;;;;;;;;;;;;;12.51;71.41;100610.56;1055710;28;712;-65
2022/12/26 00:22:35;;;;;;;;;;;;;;;12.49;71.53;100616.03;1051686;28;670;-65
2022/12/26 00:23:25;;;;;;;;;;;;;;;12.50;70.82;100620.41;1053123;28;1202;-65
2022/12/26 00:24:16;;;;;;;;;;;;;;;12.51;70.85;100622.13;1057148;28;771;-65
2022/12/26 00:25:06;;;;;;;;;;;;;;;12.49;71.65;100623.19;1055757;28;1218;-65
2022/12/26 00:25:56;;;;;;;;;;;;;;;12.51;71.18;100623.94;1055772;28;662;-65
2022/12/26 00:26:47;;;;;;;;;;;;;;;12.49;71.46;100617.84;1055767;28;1123;-65
2022/12/26 00:27:37;;;;;;;;;;;;;;;12.50;71.60;100619.56;1055625;28;721;-65
2022/12/26 00:28:28;;;;;;;;;;;;;;;12.50;71.72;100622.22;1055900;28;674;-65
2022/12/26 00:29:18;;;;;;;;;;;;;;;12.49;71.17;100623.19;1051804;28;669;-65
2022/12/26 00:30:09;;;;;;;;;;;;;;;12.49;71.79;100640.09;1055648;28;1087;-65
2022/12/26 00:30:59;;;;;;;;;;;;;;;12.47;71.14;100635.81;1052892;28;653;-65
2022/12/26 00:31:49;;;;;;;;;;;;;;;12.48;70.89;100642.88;1054248;28;1218;-65
2022/12/26 00:32:40;;;;;;;;;;;;;;;12.47;70.81;100630.47;1052969;28;634;-65
2022/12/26 00:33:30;;;;;;;;;;;;;;;12.47;71.84;100636.66;1052435;28;1225;-65
2022/12/26 00:34:21;;;;;;;;;;;;;;;12.48;71.74;100643.72;1052900;28;648;-65
2022/12/26 00:35:11;;;;;;;;;;;;;;;12.48;71.56;100638.38;1052325;28;661;-64
2022/12/26 00:36:02;;;;;;;;;;;;;;;12.49;71.15;100649.94;1052257;28;713;-65
2022/12/26 00:36:52;;;;;;;;;;;;;;;12.51;71.67;100648.00;1052366;28;618;-65
2022/12/26 00:37:42;;;;;;;;;;;;;;;12.51;71.26;100648.00;1052500;28;1075;-65
2022/12/26 00:38:33;;;;;;;;;;;;;;;12.51;71.55;100648.00;1051400;28;659;-66
2022/12/26 00:39:23;;;;;;;;;;;;;;;12.49;71.24;100640.09;1052046;28;1158;-65
2022/12/26 00:40:14;;;;;;;;;;;;;;;12.48;71.74;100643.72;1053513;28;686;-65
2022/12/26 00:41:04;;;;;;;;;;;;;;;12.50;71.09;100646.28;1055936;28;1177;-65
2022/12/26 00:41:55;;;;;;;;;;;;;;;12.51;71.58;100642.66;1055455;28;629;-65
2022/12/26 00:42:45;;;;;;;;;;;;;;;12.51;71.06;100643.50;1055927;28;1139;-65
2022/12/26 00:43:35;;;;;;;;;;;;;;;12.49;71.37;100656.13;1055608;28;725;-65
2022/12/26 00:44:26;;;;;;;;;;;;;;;12.48;70.82;100643.72;1055698;28;1165;-65
2022/12/26 00:45:16;;;;;;;;;;;;;;;12.48;71.09;100645.53;1057134;28;748;-65
2022/12/26 00:46:07;;;;;;;;;;;;;;;12.48;70.85;100649.06;1055730;28;1198;-65
2022/12/26 00:46:57;;;;;;;;;;;;;;;12.49;71.47;100648.09;1055501;28;852;-65
2022/12/26 00:47:48;;;;;;;;;;;;;;;12.50;71.02;100648.97;1055613;28;1185;-65
2022/12/26 00:48:38;;;;;;;;;;;;;;;12.49;71.47;100652.59;1052918;28;624;-64
2022/12/26 00:49:28;;;;;;;;;;;;;;;12.49;71.77;100649.94;1051843;28;1182;-65
2022/12/26 00:50:19;;;;;;;;;;;;;;;12.49;71.29;100644.56;1052916;28;700;-65
2022/12/26 00:51:09;;;;;;;;;;;;;;;12.48;71.09;100645.53;1052722;28;1111;-65
2022/12/26 00:52:00;;;;;;;;;;;;;;;12.49;71.22;100649.94;1052942;28;1149;-65
2022/12/26 00:52:50;;;;;;;;;;;;;;;12.50;71.58;100649.81;1051651;28;630;-65
2022/12/26 00:53:41;;;;;;;;;;;;;;;12.49;70.73;100650.78;1055676;28;711;-64
2022/12/26 00:54:31;;;;;;;;;;;;;;;12.51;71.75;100653.34;1055436;28;718;-65
2022/12/26 00:55:21;;;;;;;;;;;;;;;12.50;70.82;100652.47;1051883;28;728;-65
2022/12/26 00:56:12;;;;;;;;;;;;;;;12.49;71.00;100656.13;1052851;28;1971;-65
2022/12/26 00:57:02;;;;;;;;;;;;;;;12.50;71.10;100652.47;1055473;28;696;-65
2022/12/26 00:57:53;;;;;;;;;;;;;;;12.50;71.36;100656.97;1056850;28;967;-65
2022/12/26 00:58:43;;;;;;;;;;;;;;;12.51;71.13;100651.50;1055475;28;641;-65
2022/12/26 00:59:34;;;;;;;;;;;;;;;12.52;71.31;100655.91;1055648;28;965;-65
2022/12/26 01:00:24;;;;;;;;;;;;;;;12.51;71.46;100650.66;1059653;28;625;-65
2022/12/26 01:01:14;;;;;;;;;;;;;;;12.49;70.80;100650.78;1055336;28;760;-65
2022/12/26 01:02:36;;;;;;;;;;;;;;;12.50;71.07;100654.31;1055849;28;610;-65
2022/12/26 01:03:15;;;;;;;;;;;;;;;12.49;70.78;100648.09;1052947;28;657;-65
2022/12/26 01:04:06;;;;;;;;;;;;;;;12.49;71.31;100650.78;1051670;28;666;-65
2022/12/26 01:04:56;;;;;;;;;;;;;;;12.49;71.72;100649.94;1053163;28;688;-65
2022/12/26 01:05:47;;;;;;;;;;;;;;;12.49;71.53;100660.63;1055066;28;765;-65
2022/12/26 01:06:37;;;;;;;;;;;;;;;12.49;71.03;100657.94;1053235;28;669;-65
2022/12/26 01:07:27;;;;;;;;;;;;;;;12.50;71.44;100647.13;1055501;28;1073;-65
2022/12/26 01:08:18;;;;;;;;;;;;;;;12.48;71.44;100656.22;1056061;28;601;-65
2022/12/26 01:09:10;;;;;;;;;;;;;;;12.48;71.38;100658.91;1056135;28;1213;-65
2022/12/26 01:10:01;;;;;;;;;;;;;;;12.48;71.12;100661.56;1056093;28;626;-65
2022/12/26 01:10:52;;;;;;;;;;;;;;;12.48;71.50;100654.41;1056680;28;1221;-65
2022/12/26 01:11:42;;;;;;;;;;;;;;;12.47;71.81;100650.03;1056893;28;621;-65
2022/12/26 01:12:33;;;;;;;;;;;;;;;12.49;71.63;100650.78;1053656;28;1012;-65
2022/12/26 01:13:23;;;;;;;;;;;;;;;12.50;71.70;100651.63;1056220;28;684;-65
2022/12/26 01:14:13;;;;;;;;;;;;;;;12.49;70.77;100650.78;1053725;28;1138;-65
2022/12/26 01:15:04;;;;;;;;;;;;;;;12.49;71.49;100648.09;1053733;28;570;-65
2022/12/26 01:15:54;;;;;;;;;;;;;;;12.49;71.69;100652.59;1057173;28;1098;-65
2022/12/26 01:16:45;;;;;;;;;;;;;;;12.50;71.69;100654.31;1054026;28;617;-65
2022/12/26 01:17:35;;;;;;;;;;;;;;;12.52;71.60;100652.38;1051589;28;1099;-65
2022/12/26 01:18:26;;;;;;;;;;;;;;;12.49;70.77;100645.44;1056892;28;653;-65
2022/12/26 01:19:16;;;;;;;;;;;;;;;12.49;71.19;100645.44;1054327;28;1114;-65
2022/12/26 01:20:07;;;;;;;;;;;;;;;12.48;70.87;100642.88;1057501;28;645;-65
2022/12/26 01:20:57;;;;;;;;;;;;;;;12.48;70.82;100643.72;1057093;28;1143;-65
2022/12/26 01:21:47;;;;;;;;;;;;;;;12.50;71.37;100644.47;1056656;28;1146;-65
2022/12/26 01:22:38;;;;;;;;;;;;;;;12.50;71.29;100635.59;1056597;28;602;-66
2022/12/26 01:23:28;;;;;;;;;;;;;;;12.50;71.74;100638.25;1055894;28;940;-65
2022/12/26 01:24:19;;;;;;;;;;;;;;;12.48;71.74;100629.50;1056412;28;626;-65
2022/12/26 01:25:09;;;;;;;;;;;;;;;12.49;71.74;100629.41;1057786;28;678;-65
2022/12/26 01:25:59;;;;;;;;;;;;;;;12.48;70.90;100641.06;1056834;28;638;-65
2022/12/26 01:26:50;;;;;;;;;;;;;;;12.49;71.07;100640.09;1056064;28;772;-65
2022/12/26 01:27:40;;;;;;;;;;;;;;;12.48;71.78;100637.53;1056691;28;1170;-65
2022/12/26 01:28:31;;;;;;;;;;;;;;;12.47;71.42;100631.31;1055834;28;743;-65
2022/12/26 01:29:21;;;;;;;;;;;;;;;12.48;71.65;100629.50;1056476;28;1170;-65
2022/12/26 01:30:11;;;;;;;;;;;;;;;12.51;71.70;100631.94;1056248;28;735;-67
2022/12/26 01:31:02;;;;;;;;;;;;;;;12.50;70.91;100630.25;1052305;28;697;-67
2022/12/26 01:31:52;;;;;;;;;;;;;;;12.50;71.69;100638.25;1053180;28;732;-64
2022/12/26 01:32:43;;;;;;;;;;;;;;;12.49;70.68;100636.56;1052995;28;734;-67
2022/12/26 01:33:33;;;;;;;;;;;;;;;12.48;71.57;100634.84;1053052;28;763;-65
2022/12/26 01:34:24;;;;;;;;;;;;;;;12.47;71.36;100631.31;1054290;28;1222;-67
2022/12/26 01:35:14;;;;;;;;;;;;;;;12.50;70.83;100635.59;1053534;28;637;-64
2022/12/26 01:36:05;;;;;;;;;;;;;;;12.49;71.65;100639.22;1053074;28;700;-64
2022/12/26 01:36:55;;;;;;;;;;;;;;;12.50;71.08;100639.13;1052996;28;697;-65
2022/12/26 01:37:45;;;;;;;;;;;;;;;12.48;71.69;100640.19;1055636;28;1135;-65
2022/12/26 01:38:36;;;;;;;;;;;;;;;12.50;70.98;100641.78;1056413;28;649;-64
2022/12/26 01:39:26;;;;;;;;;;;;;;;12.49;71.42;100644.56;1056465;28;1182;-65
2022/12/26 01:40:17;;;;;;;;;;;;;;;12.49;71.55;100645.44;1056868;28;669;-65
2022/12/26 01:41:16;;;;;;;;;;;;;;;12.49;70.85;100641.91;1054414;28;649;-65
2022/12/26 01:42:06;;;;;;;;;;;;;;;12.50;71.10;100643.59;1052562;28;777;-65
2022/12/26 01:42:57;;;;;;;;;;;;;;;12.51;71.50;100648.84;1052825;28;707;-65
2022/12/26 01:43:47;;;;;;;;;;;;;;;12.50;71.47;100643.59;1055498;28;1159;-65
2022/12/26 01:44:38;;;;;;;;;;;;;;;12.49;71.05;100647.25;1056367;28;758;-65
2022/12/26 01:45:28;;;;;;;;;;;;;;;12.48;70.98;100649.06;1056446;28;1158;-65
2022/12/26 01:46:18;;;;;;;;;;;;;;;12.49;71.12;100657.94;1053647;28;609;-65
2022/12/26 01:47:09;;;;;;;;;;;;;;;12.49;71.07;100649.94;1052859;28;569;-65
2022/12/26 01:47:59;;;;;;;;;;;;;;;12.50;71.17;100651.63;1053131;28;708;-65
2022/12/26 01:48:50;;;;;;;;;;;;;;;12.49;70.76;100655.28;1056526;28;1229;-65
2022/12/26 01:49:40;;;;;;;;;;;;;;;12.49;71.46;100655.28;1053671;28;650;-65
2022/12/26 01:50:31;;;;;;;;;;;;;;;12.47;71.29;100650.03;1056050;28;1222;-65
2022/12/26 01:51:21;;;;;;;;;;;;;;;12.49;71.43;100657.94;1053614;28;608;-64
2022/12/26 01:52:12;;;;;;;;;;;;;;;12.48;71.26;100653.56;1054593;28;1099;-64
2022/12/26 01:53:02;;;;;;;;;;;;;;;12.47;70.93;100651.84;1056216;28;638;-65
2022/12/26 01:53:53;;;;;;;;;;;;;;;12.46;71.00;100650.16;1055687;28;949;-64
2022/12/26 01:54:43;;;;;;;;;;;;;;;12.46;71.11;100651.00;1056206;28;725;-65
2022/12/26 01:55:34;;;;;;;;;;;;;;;12.49;71.63;100652.59;1057646;28;686;-64
2022/12/26 01:56:24;;;;;;;;;;;;;;;12.49;71.54;100649.94;1052277;28;1964;-65
2022/12/26 01:57:15;;;;;;;;;;;;;;;12.49;71.32;100655.28;1055197;28;908;-65
2022/12/26 01:58:05;;;;;;;;;;;;;;;12.48;71.48;100656.22;1055935;28;630;-65
2022/12/26 01:58:55;;;;;;;;;;;;;;;12.49;71.55;100649.94;1056064;28;757;-64
2022/12/26 01:59:46;;;;;;;;;;;;;;;12.48;71.04;100650.88;1060282;27;1206;-65
2022/12/26 02:00:36;;;;;;;;;;;;;;;12.49;71.17;100644.56;1056767;28;654;-65
2022/12/26 02:01:27;;;;;;;;;;;;;;;12.46;71.58;100645.66;1056764;28;638;-65
2022/12/26 02:02:17;;;;;;;;;;;;;;;12.48;71.47;100650.88;1055835;28;1078;-64
2022/12/26 02:05:35;;;;;;;;;;;;;;;12.46;71.42;100651.00;1056724;28;738;-64
2022/12/26 02:06:25;;;;;;;;;;;;;;;12.46;71.36;100647.47;1053030;28;598;-64
2022/12/26 02:07:16;;;;;;;;;;;;;;;12.48;70.94;100648.22;1053635;28;637;-65
2022/12/26 02:08:06;;;;;;;;;;;;;;;12.47;71.48;100649.19;1055569;28;1201;-64
2022/12/26 02:08:57;;;;;;;;;;;;;;;12.47;71.79;100642.03;1053516;28;669;-65
2022/12/26 02:09:47;;;;;;;;;;;;;;;12.46;70.97;100647.47;1054368;28;1194;-64
2022/12/26 02:10:37;;;;;;;;;;;;;;;12.46;71.34;100645.66;1056571;28;602;-64
2022/12/26 02:11:28;;;;;;;;;;;;;;;12.46;71.29;100636.78;1056166;28;1213;-65
2022/12/26 02:12:18;;;;;;;;;;;;;;;12.44;70.89;100644.91;1056321;28;1245;-65
2022/12/26 02:13:09;;;;;;;;;;;;;;;12.47;71.78;100651.84;1056189;28;768;-64
2022/12/26 02:13:59;;;;;;;;;;;;;;;12.48;70.93;100650.88;1056166;28;1123;-65
2022/12/26 02:14:50;;;;;;;;;;;;;;;12.46;71.27;100640.31;1056123;28;714;-64
2022/12/26 02:15:40;;;;;;;;;;;;;;;12.46;70.90;100639.47;1055954;28;622;-64
2022/12/26 02:16:30;;;;;;;;;;;;;;;12.46;70.98;100637.63;1052007;28;1910;-65
2022/12/26 02:17:21;;;;;;;;;;;;;;;12.47;70.96;100638.50;1052755;28;626;-64
2022/12/26 02:18:11;;;;;;;;;;;;;;;12.46;71.14;100639.47;1056432;28;670;-65
2022/12/26 02:19:02;;;;;;;;;;;;;;;12.45;71.33;100645.78;1056603;28;614;-64
2022/12/26 02:19:52;;;;;;;;;;;;;;;12.44;71.44;100636.91;1055261;28;1079;-64
2022/12/26 02:20:43;;;;;;;;;;;;;;;12.46;71.59;100642.13;1056084;28;653;-66
2022/12/26 02:21:33;;;;;;;;;;;;;;;12.45;71.80;100638.59;1052202;28;622;-66
2022/12/26 02:22:23;;;;;;;;;;;;;;;12.46;71.42;100639.47;1055200;28;1186;-66
2022/12/26 02:23:14;;;;;;;;;;;;;;;12.46;71.23;100639.47;1053313;28;614;-67
2022/12/26 02:24:04;;;;;;;;;;;;;;;12.46;70.82;100640.31;1055344;28;1158;-64
2022/12/26 02:24:55;;;;;;;;;;;;;;;12.45;71.25;100635.09;1054085;28;622;-67
2022/12/26 02:25:45;;;;;;;;;;;;;;;12.46;71.06;100648.34;1054269;28;1233;-66
2022/12/26 02:26:36;;;;;;;;;;;;;;;12.46;71.52;100642.13;1049536;28;701;-64
2022/12/26 02:27:26;;;;;;;;;;;;;;;12.45;71.16;100638.59;1049462;28;686;-67
2022/12/26 02:28:16;;;;;;;;;;;;;;;12.46;70.92;100639.47;1053372;28;625;-66
2022/12/26 02:29:07;;;;;;;;;;;;;;;12.44;71.05;100641.41;1056005;28;1142;-66
2022/12/26 02:29:57;;;;;;;;;;;;;;;12.45;71.22;100637.75;1056550;28;649;-64
2022/12/26 02:30:48;;;;;;;;;;;;;;;12.43;71.08;100637.88;1056175;28;940;-64
2022/12/26 02:31:39;;;;;;;;;;;;;;;12.44;70.82;100636.03;1056347;28;621;-67
2022/12/26 02:32:31;;;;;;;;;;;;;;;12.46;71.71;100639.47;1055438;28;824;-67
2022/12/26 02:33:21;;;;;;;;;;;;;;;12.46;71.21;100634.13;1052372;28;649;-64
2022/12/26 02:34:12;;;;;;;;;;;;;;;12.43;71.70;100637.00;1056611;28;749;-64
2022/12/26 02:35:02;;;;;;;;;;;;;;;12.46;71.01;100636.78;1058885;27;1185;-64
2022/12/26 02:35:53;;;;;;;;;;;;;;;12.44;70.94;100644.06;1053091;28;732;-64
2022/12/26 02:36:43;;;;;;;;;;;;;;;12.44;71.29;100634.22;1052759;28;1245;-66
2022/12/26 02:37:33;;;;;;;;;;;;;;;12.43;71.86;100639.69;1053467;28;680;-67
2022/12/26 02:38:24;;;;;;;;;;;;;;;12.43;71.58;100635.19;1060275;27;667;-67
2022/12/26 02:39:14;;;;;;;;;;;;;;;12.44;71.72;100628.03;1057829;28;1082;-65
2022/12/26 02:40:05;;;;;;;;;;;;;;;12.45;70.87;100627.06;1053132;28;665;-66
2022/12/26 02:40:55;;;;;;;;;;;;;;;12.43;70.82;100632.53;1055167;28;1074;-66
2022/12/26 02:41:46;;;;;;;;;;;;;;;12.44;70.90;100626.22;1055657;28;623;-65
2022/12/26 02:42:36;;;;;;;;;;;;;;;12.45;70.90;100632.41;1055712;28;1107;-64
2022/12/26 02:43:27;;;;;;;;;;;;;;;12.45;71.68;100633.25;1057614;28;740;-64
2022/12/26 02:47:45;;;;;;;;;;;;;;;12.46;71.47;100631.44;1053456;28;653;-65
2022/12/26 02:48:35;;;;;;;;;;;;;;;12.47;71.70;100633.16;1052642;28;674;-64
2022/12/26 02:49:25;;;;;;;;;;;;;;;12.45;70.85;100627.06;1052217;28;684;-65
2022/12/26 03:13:27;;;;;;;;;;;;;;;12.43;71.13;100631.66;1044861;28;1143;-65
2022/12/26 03:14:18;;;;;;;;;;;;;;;12.45;71.27;100624.41;1044445;28;754;-66
2022/12/26 03:15:08;;;;;;;;;;;;;;;12.46;70.89;100624.28;1045419;28;1202;-65
2022/12/26 03:17:19;;;;;;;;;;;;;;;12.43;70.93;100632.53;1044293;28;1183;-66
2022/12/26 03:18:10;;;;;;;;;;;;;;;12.45;71.07;100627.91;1041428;28;664;-65
2022/12/26 03:19:00;;;;;;;;;;;;;;;12.43;71.77;100631.66;1042530;28;1199;-65
2022/12/26 03:20:00;;;;;;;;;;;;;;;12.41;71.27;100630.94;1044734;28;1238;-65
2022/12/26 03:20:50;;;;;;;;;;;;;;;12.44;71.24;100628.03;1044314;28;817;-65
2022/12/26 03:21:41;;;;;;;;;;;;;;;12.44;71.37;100642.25;1045497;28;1170;-65
2022/12/26 03:22:31;;;;;;;;;;;;;;;12.42;71.32;100637.97;1040255;28;693;-65
2022/12/26 03:23:21;;;;;;;;;;;;;;;12.41;70.95;100637.13;1048754;28;1214;-65
2022/12/26 03:24:12;;;;;;;;;;;;;;;12.41;71.31;100646.97;1041424;28;696;-65
2022/12/26 03:27:20;;;;;;;;;;;;;;;12.42;71.66;100649.53;1048621;28;1182;-65
2022/12/26 03:28:11;;;;;;;;;;;;;;;12.41;70.85;100645.16;1049247;28;656;-66
2022/12/26 03:31:19;;;;;;;;;;;;;;;12.41;71.80;100642.47;1045360;28;1166;-65
2022/12/26 03:32:09;;;;;;;;;;;;;;;12.42;71.04;100643.31;1041336;28;647;-65
2022/12/26 03:33:00;;;;;;;;;;;;;;;12.40;71.56;100639.91;1049089;28;783;-65
2022/12/26 03:34:59;;;;;;;;;;;;;;;12.41;71.74;100645.16;1043423;28;718;-65
2022/12/26 03:35:50;;;;;;;;;;;;;;;12.41;70.94;100636.28;1045476;28;693;-66
2022/12/26 03:36:40;;;;;;;;;;;;;;;12.41;71.53;100638.94;1044303;28;1960;-66
2022/12/26 03:37:31;;;;;;;;;;;;;;;12.43;70.80;100639.69;1044976;28;1004;-65
2022/12/26 03:38:21;;;;;;;;;;;;;;;12.41;70.82;100641.63;1052699;28;760;-65
2022/12/26 03:39:11;;;;;;;;;;;;;;;12.41;71.07;100642.47;1048098;28;617;-65
2022/12/26 04:19:22;;;;;;;;;;;;;;;12.38;71.15;100620.47;1048892;28;653;-65
2022/12/26 04:20:13;;;;;;;;;;;;;;;12.37;71.09;100630.31;1049415;28;692;-65
2022/12/26 04:21:04;;;;;;;;;;;;;;;12.39;71.34;100622.19;1047619;28;610;-65
2022/12/26 04:44:09;;;;;;;;;;;;;;;12.42;71.56;100641.50;1044770;28;1115;-65
2022/12/26 04:44:59;;;;;;;;;;;;;;;12.39;71.52;100643.56;1044026;28;692;-65
2022/12/26 04:45:50;;;;;;;;;;;;;;;12.38;71.46;100636.50;1040744;28;731;-65
2022/12/26 04:46:40;;;;;;;;;;;;;;;12.39;71.59;100640.88;1040858;28;1211;-65
2022/12/26 04:47:30;;;;;;;;;;;;;;;12.40;70.76;100639.91;1040664;28;614;-65
2022/12/26 04:50:39;;;;;;;;;;;;;;;12.35;71.80;100637.63;1040542;28;992;-65
2022/12/26 04:51:30;;;;;;;;;;;;;;;12.36;71.77;100639.28;1040674;28;1270;-65
2022/12/26 04:52:20;;;;;;;;;;;;;;;12.36;71.00;100633.13;1041189;28;672;-65
2022/12/26 04:53:10;;;;;;;;;;;;;;;12.35;70.79;100629.59;1039954;28;704;-65
2022/12/26 04:54:01;;;;;;;;;;;;;;;12.33;71.80;100628.84;1040622;28;643;-65
2022/12/26 04:54:51;;;;;;;;;;;;;;;12.34;71.46;100624.38;1040607;28;536;-65
2022/12/26 04:55:42;;;;;;;;;;;;;;;12.35;71.75;100632.28;1043677;28;693;-65
2022/12/26 04:56:32;;;;;;;;;;;;;;;12.35;71.83;100629.59;1043809;28;1953;-65
2022/12/26 04:57:23;;;;;;;;;;;;;;;12.36;71.78;100622.44;1050371;28;1020;-65
2022/12/26 04:58:13;;;;;;;;;;;;;;;12.36;71.62;100620.59;1053442;28;693;-65
2022/12/26 04:59:04;;;;;;;;;;;;;;;12.38;70.88;100617.78;1055795;28;672;-65
2022/12/26 04:59:54;;;;;;;;;;;;;;;12.35;71.75;100621.59;1056095;28;1057;-65
2022/12/26 05:00:44;;;;;;;;;;;;;;;12.35;71.84;100616.25;1055709;28;1171;-65
2022/12/26 05:09:39;;;;;;;;;;;;;;;12.35;71.77;100610.91;1054710;28;706;-65
2022/12/26 05:10:29;;;;;;;;;;;;;;;12.36;70.73;100609.06;1052207;28;1348;-65
2022/12/26 05:11:19;;;;;;;;;;;;;;;12.36;71.65;100606.41;1055854;28;695;-65
2022/12/26 05:12:10;;;;;;;;;;;;;;;12.36;71.71;100612.56;1051510;28;642;-65
2022/12/26 05:13:00;;;;;;;;;;;;;;;12.34;70.89;100608.34;1051660;28;635;-65
2022/12/26 05:13:51;;;;;;;;;;;;;;;12.35;71.29;100608.22;1055679;28;1210;-65
2022/12/26 05:14:41;;;;;;;;;;;;;;;12.36;71.32;100617.09;1053629;28;680;-65
2022/12/26 05:28:40;;;;;;;;;;;;;;;12.35;71.60;100613.56;1052162;28;720;-65
2022/12/26 05:28:40;;;;;;;;;;;;;;;12.38;70.93;100615.13;1051683;28;661;-65
2022/12/26 05:28:43;;;;;;;;;;;;;;;12.35;71.63;100628.75;1047304;28;888;-65
2022/12/26 05:29:34;;;;;;;;;;;;;;;12.33;71.42;100633.34;1048299;28;622;-65
2022/12/26 05:30:24;;;;;;;;;;;;;;;12.33;71.12;100622.66;1048003;28;1191;-64
2022/12/26 05:31:15;;;;;;;;;;;;;;;12.32;71.80;100620.97;1046999;28;1087;-65
2022/12/26 05:32:05;;;;;;;;;;;;;;;12.31;71.53;100625.44;1046260;28;667;-65
2022/12/26 05:34:04;;;;;;;;;;;;;;;12.34;71.65;100629.72;1044573;28;704;-65
2022/12/26 05:34:55;;;;;;;;;;;;;;;12.33;71.22;100628.00;1047042;28;735;-65
2022/12/26 05:35:45;;;;;;;;;;;;;;;12.30;71.45;100629.09;1044152;28;653;-65
2022/12/26 05:36:35;;;;;;;;;;;;;;;12.31;70.82;100629.94;1047482;28;1957;-65
2022/12/26 05:37:26;;;;;;;;;;;;;;;12.29;71.87;100635.41;1047629;28;1246;-65
2022/12/26 05:38:16;;;;;;;;;;;;;;;12.28;71.06;100636.38;1046795;28;702;-64
2022/12/26 05:39:07;;;;;;;;;;;;;;;12.30;71.60;100633.56;1047483;28;1190;-65
2022/12/26 05:39:57;;;;;;;;;;;;;;;12.29;71.03;100635.41;1048355;28;797;-65
2022/12/26 05:40:47;;;;;;;;;;;;;;;12.28;71.43;100630.16;1046422;28;1230;-65
2022/12/26 05:41:39;;;;;;;;;;;;;;;12.28;71.70;100633.69;1046704;28;750;-65
2022/12/26 05:42:29;;;;;;;;;;;;;;;12.31;71.72;100629.94;1043306;28;677;-65
2022/12/26 05:43:20;;;;;;;;;;;;;;;12.32;71.07;100631.66;1047060;28;801;-65
2022/12/26 05:44:10;;;;;;;;;;;;;;;12.33;70.83;100633.34;1043293;28;1102;-65
2022/12/26 05:45:01;;;;;;;;;;;;;;;12.34;71.63;100632.38;1048305;28;1012;-65
2022/12/26 05:45:51;;;;;;;;;;;;;;;12.31;71.61;100635.28;1042750;28;607;-65
2022/12/26 05:46:42;;;;;;;;;;;;;;;12.30;71.62;100630.91;1045830;28;1132;-65
2022/12/26 05:47:32;;;;;;;;;;;;;;;12.31;71.62;100628.13;1047811;28;618;-65
2022/12/26 05:48:22;;;;;;;;;;;;;;;12.33;71.39;100631.53;1043986;28;701;-65
2022/12/26 05:49:13;;;;;;;;;;;;;;;12.31;71.14;100628.13;1048177;28;634;-65
2022/12/26 05:50:03;;;;;;;;;;;;;;;12.29;71.73;100629.19;1044615;28;732;-64
2022/12/26 05:50:54;;;;;;;;;;;;;;;12.29;71.13;100629.19;1048089;28;893;-65
2022/12/26 05:51:44;;;;;;;;;;;;;;;12.28;71.87;100624.81;1044900;28;657;-65
2022/12/26 05:52:34;;;;;;;;;;;;;;;12.31;71.80;100620.09;1045467;28;749;-65
2022/12/26 05:53:25;;;;;;;;;;;;;;;12.30;71.70;100629.09;1048239;28;1242;-65
2022/12/26 05:54:15;;;;;;;;;;;;;;;12.30;71.09;100622.88;1048862;28;706;-65
2022/12/26 05:55:06;;;;;;;;;;;;;;;12.31;71.84;100624.59;1048175;28;1123;-65
2022/12/26 05:55:56;;;;;;;;;;;;;;;12.29;70.86;100621.19;1048771;28;691;-65
2022/12/26 05:56:47;;;;;;;;;;;;;;;12.28;70.87;100624.81;1047629;28;1924;-65
2022/12/26 05:57:37;;;;;;;;;;;;;;;12.28;71.79;100625.69;1048971;28;686;-65
2022/12/26 05:58:27;;;;;;;;;;;;;;;12.29;71.76;100610.50;1048435;28;1281;-65
2022/12/26 05:59:18;;;;;;;;;;;;;;;12.27;71.37;100620.44;1048857;28;734;-65
2022/12/26 06:00:08;;;;;;;;;;;;;;;12.26;71.09;100616.91;1045990;28;1024;-65
2022/12/26 06:00:59;;;;;;;;;;;;;;;12.26;70.87;100624.09;1047735;28;762;-65
2022/12/26 06:01:49;;;;;;;;;;;;;;;12.27;71.08;100626.63;1048029;28;1331;-67
2022/12/26 06:02:40;;;;;;;;;;;;;;;12.28;71.13;100633.69;1047015;28;894;-65
2022/12/26 06:03:30;;;;;;;;;;;;;;;12.27;70.82;100631.97;1046335;28;946;-65
2022/12/26 06:04:20;;;;;;;;;;;;;;;12.28;71.76;100630.16;1054971;28;1102;-65
2022/12/26 06:05:11;;;;;;;;;;;;;;;12.28;71.85;100627.50;1057867;28;677;-65
2022/12/26 06:06:01;;;;;;;;;;;;;;;12.30;71.69;100634.44;1056919;28;1316;-65
2022/12/26 06:06:55;;;;;;;;;;;;;;;12.28;71.08;100623.00;1056740;28;649;-64
2022/12/26 06:07:45;;;;;;;;;;;;;;;12.24;71.37;100629.53;1054282;28;1091;-65
2022/12/26 06:08:36;;;;;;;;;;;;;;;12.25;70.89;100625.03;1055886;28;682;-65
2022/12/26 06:09:26;;;;;;;;;;;;;;;12.25;71.77;100617.03;1056402;28;1197;-64
2022/12/26 06:10:16;;;;;;;;;;;;;;;12.25;71.42;100619.69;1055709;28;1066;-65
2022/12/26 06:11:07;;;;;;;;;;;;;;;12.27;71.01;100634.66;1052970;28;720;-65
2022/12/26 06:11:57;;;;;;;;;;;;;;;12.28;70.92;100635.50;1055599;28;746;-65
2022/12/26 06:12:48;;;;;;;;;;;;;;;12.28;71.56;100630.16;1056517;28;724;-65
2022/12/26 06:13:38;;;;;;;;;;;;;;;12.27;71.67;100623.13;1055861;28;1122;-65
2022/12/26 06:14:28;;;;;;;;;;;;;;;12.24;70.86;100620.66;1055918;28;586;-65
2022/12/26 06:15:19;;;;;;;;;;;;;;;12.23;71.15;100626.97;1057673;28;1156;-65
2022/12/26 06:16:09;;;;;;;;;;;;;;;12.22;70.98;100626.13;1055729;28;634;-65
2022/12/26 06:17:00;;;;;;;;;;;;;;;12.22;71.21;100625.28;1055913;28;709;-65
2022/12/26 06:17:50;;;;;;;;;;;;;;;12.23;71.89;100629.66;1053512;28;665;-65
2022/12/26 06:18:41;;;;;;;;;;;;;;;12.26;71.85;100624.94;1058066;28;1039;-65
2022/12/26 06:19:31;;;;;;;;;;;;;;;12.25;71.11;100625.03;1056253;28;669;-65
2022/12/26 06:20:21;;;;;;;;;;;;;;;12.27;71.33;100617.78;1052194;28;621;-65
2022/12/26 06:21:12;;;;;;;;;;;;;;;12.25;71.31;100622.38;1052323;28;708;-65
2022/12/26 06:22:02;;;;;;;;;;;;;;;12.27;71.81;100625.78;1055935;28;1194;-65
2022/12/26 06:22:53;;;;;;;;;;;;;;;12.26;71.31;100626.75;1057635;28;616;-65
2022/12/26 06:23:43;;;;;;;;;;;;;;;12.23;70.96;100626.97;1056244;28;602;-65
2022/12/26 06:24:34;;;;;;;;;;;;;;;12.25;71.87;100619.69;1055211;28;1197;-65
2022/12/26 06:25:24;;;;;;;;;;;;;;;12.25;71.56;100622.38;1052902;28;673;-65
2022/12/26 06:26:14;;;;;;;;;;;;;;;12.25;70.78;100625.91;1056939;28;1237;-65